Flight Track Log - Related Links

Times and Time Zones

All times are in EDT time to prevent confusion due to time zone crossing. See the N6030E flight status page for this flight to view local times or setup timezone preferences in your user account.

Time Position Orientation Groundspeed Altitude Reporting Facility
EDT Latitude Longitude Course Direction KTS MPH feet Rate Location/Type
Sun 09:21:54 PM 26.1972 -80.1794 350° North 90 104 300  Level Miami Center
Sun 09:23:00 PM 26.2232 -80.1720 14° North  Level FlightAware
Sun 09:30:00 PM 26.3925 -80.1500 North  Level FlightAware
Sun 09:31:00 PM 26.4162 -80.1446 17° North  Level FlightAware
Sun 09:32:00 PM 26.4396 -80.1368 17° North  Level FlightAware
Sun 09:33:00 PM 26.4633 -80.1303 12° North  Level FlightAware
Sun 09:34:00 PM 26.4872 -80.1248 12° North  Level FlightAware
Sun 09:35:00 PM 26.5111 -80.1192 12° North  Level FlightAware
Sun 09:36:00 PM 26.5350 -80.1137 12° North  Level FlightAware
Sun 09:37:00 PM 26.5590 -80.1082 12° North  Level FlightAware
Sun 09:38:00 PM 26.5829 -80.1027 12° North  Level FlightAware
Sun 09:39:00 PM 26.6068 -80.0972 12° North  Level FlightAware
Sun 09:40:00 PM 26.6307 -80.0916 12° North  Level FlightAware
Sun 09:41:00 PM 26.6546 -80.0861 12° North  Level FlightAware
Sun 09:42:00 PM 26.6782 -80.0874 343° North  Level FlightAware
Sun 09:43:00 PM 26.7015 -80.0956 343° North  Level FlightAware
Sun 09:44:00 PM 26.7248 -80.1038 343° North  Level FlightAware
Sun 09:45:00 PM 26.7481 -80.1120 343° North  Level FlightAware
Sun 09:46:00 PM 26.7714 -80.1202 343° North  Level FlightAware
Sun 09:47:00 PM 26.7947 -80.1285 343° North  Level FlightAware
Sun 09:48:00 PM 26.8180 -80.1367 343° North  Level FlightAware
Sun 09:49:00 PM 26.8413 -80.1449 343° North  Level FlightAware
Sun 09:50:00 PM 26.8646 -80.1531 343° North  Level FlightAware
Sun 09:51:00 PM 26.8879 -80.1614 343° North  Level FlightAware
Sun 09:51:48 PM 26.8689 -80.3056 338° Northwest 85 98 7,000  Level Miami Center
Sun 09:52:00 PM 26.9112 -80.1696 343° North  Level FlightAware
Sun 09:52:46 PM 26.8897 -80.3083 353° North 80 92 7,000  Level Miami Center
Sun 09:53:00 PM 26.9345 -80.1778 342° North  Level FlightAware
Sun 09:53:46 PM 26.9144 -80.3161 344° North 88 101 7,000  Level Miami Center
Sun 09:54:00 PM 26.9576 -80.1868 338° Northwest  Level FlightAware
Sun 09:54:47 PM 26.9375 -80.3167 359° North 106 122 7,000  Level Miami Center
Sun 09:55:00 PM 26.9802 -80.1970 338° Northwest  Level FlightAware
Sun 09:55:48 PM 26.9644 -80.3247 345° North 101 116 7,000  Level Miami Center
Sun 09:56:00 PM 27.0028 -80.2073 338° Northwest  Level FlightAware
Sun 09:56:48 PM 26.9872 -80.3300 348° North 91 105 7,000  Level Miami Center
Sun 09:57:46 PM 27.0122 -80.3353 349° North 86 99 7,000  Level Miami Center
Sun 09:58:48 PM 27.0353 -80.3383 353° North 86 99 7,000  Level Miami Center
Sun 09:59:48 PM 27.0600 -80.3483 340° North 86 99 7,000  Level Miami Center
Sun 10:00:49 PM 27.0869 -80.3539 350° North 86 99 7,000  Level Miami Center
Sun 10:01:46 PM 27.1119 -80.3594 349° North 86 99 7,000  Level Miami Center
Sun 10:02:46 PM 27.1347 -80.3647 348° North 86 99 7,000  Level Miami Center
Sun 10:03:49 PM 27.1556 -80.3675 353° North 86 99 7,000  Level Miami Center
Sun 10:04:47 PM 27.1803 -80.3778 340° North 86 99 7,000  Level Miami Center
Sun 10:05:46 PM 27.2075 -80.3808 354° North 86 99 7,000  Level Miami Center
Sun 10:06:48 PM 27.2303 -80.3861 348° North 86 99 7,000  Level Miami Center
Sun 10:07:46 PM 27.2511 -80.3917 347° North 86 99 7,000  Level Miami Center
Sun 10:08:47 PM 27.2739 -80.3992 344° North 86 99 7,000  Level Miami Center
Sun 10:09:46 PM 27.3008 -80.4047 350° North 86 99 7,000  Level Miami Center
Sun 10:10:48 PM 27.3236 -80.4078 353° North 86 99 7,000  Level Miami Center
Sun 10:11:46 PM 27.3486 -80.4133 349° North 86 99 7,000  Level Miami Center
Sun 10:12:47 PM 27.3694 -80.4208 342° North 86 99 7,000  Level Miami Center
Sun 10:13:46 PM 27.3942 -80.4264 349° North 86 99 7,000  Level Miami Center
Sun 10:14:47 PM 27.4192 -80.4317 349° North 86 99 7,000  Level Miami Center
Sun 10:15:46 PM 27.4442 -80.4372 349° North 86 99 7,000  Level Miami Center
Sun 10:16:47 PM 27.4669 -80.4425 348° North 86 99 7,000  Level Miami Center
Sun 10:17:48 PM 27.4897 -80.4481 348° North 86 99 7,000  Level Miami Center
Sun 10:18:48 PM 27.5167 -80.4558 346° North 86 99 7,000  Level Miami Center
Sun 10:19:46 PM 27.5394 -80.4589 353° North 86 99 7,000  Level Miami Center
Sun 10:20:46 PM 27.5625 -80.4644 348° North 86 99 7,000  Level Miami Center
Sun 10:21:46 PM 27.5831 -80.4697 347° North 86 99 7,000  Level Miami Center
Sun 10:22:48 PM 27.6081 -80.4753 349° North 86 99 7,000  Level Miami Center
Sun 10:23:47 PM 27.6308 -80.4828 344° North 86 99 7,000  Level Miami Center
Sun 10:24:48 PM 27.6536 -80.4883 348° North 86 99 7,000  Level Miami Center
Sun 10:25:46 PM 27.6764 -80.4936 348° North 86 99 7,000  Level Miami Center
Sun 10:26:47 PM 27.6972 -80.4992 347° North 86 99 7,000  Level Miami Center
Sun 10:27:48 PM 27.7200 -80.5069 343° North 86 99 7,000  Level Miami Center
Sun 10:28:48 PM 27.7447 -80.5147 344° North 86 99 7,000  Level Miami Center
Sun 10:29:46 PM 27.7656 -80.5222 342° North 86 99 7,000  Level Miami Center
Sun 10:30:46 PM 27.7864 -80.5278 347° North 86 99 7,000  Level Miami Center
Sun 10:31:49 PM 27.8069 -80.5378 337° Northwest 86 99 7,000  Level Miami Center
Sun 10:32:47 PM 27.8317 -80.5433 349° North 86 99 7,000  Level Miami Center
Sun 10:33:46 PM 27.8544 -80.5533 339° North 86 99 7,000  Level Miami Center
Sun 10:34:48 PM 27.8753 -80.5589 347° North 86 99 7,000  Level Miami Center
Sun 10:36:40 PM 27.9167 -80.5667 351° North 86 99 7,000  Level Orlando TRACON
Sun 10:37:40 PM 27.9500 -80.5833 336° Northwest 84 97 7,000  Level Orlando TRACON
Sun 10:38:34 PM 27.9667 -80.5833 360° North 83 96 7,000  Level Orlando TRACON
Sun 10:39:40 PM 27.9833 -80.6000 319° Northwest 81 93 7,000  Level Orlando TRACON
Sun 10:40:28 PM 28.0000 -80.6000 360° North 82 94 7,000  Level Orlando TRACON
Sun 10:41:52 PM 28.0333 -80.6167 336° Northwest 83 96 7,000  Level Orlando TRACON
Sun 10:42:52 PM 28.0500 -80.6167 360° North 80 92 7,000  Level Orlando TRACON
Sun 10:43:52 PM 28.0833 -80.6333 336° Northwest 81 93 7,000  Level Orlando TRACON
Sun 10:44:52 PM 28.1000 -80.6333 360° North 86 99 7,000  Level Orlando TRACON
Sun 10:45:58 PM 28.1167 -80.6500 319° Northwest 83 96 7,000  Level Orlando TRACON
Sun 10:46:40 PM 28.1333 -80.6500 360° North 82 94 7,000  Level Orlando TRACON
Sun 10:47:34 PM 28.1500 -80.6500 360° North 80 92 7,000  Level Orlando TRACON
Sun 10:48:34 PM 28.1833 -80.6667 336° Northwest 82 94 7,000  Level Orlando TRACON
Sun 10:49:58 PM 28.2167 -80.6833 336° Northwest 82 94 7,000  Level Orlando TRACON
Sun 10:50:40 PM 28.2167 -80.6833 221° Southwest 83 96 7,000  Level Orlando TRACON
Sun 10:51:40 PM 28.2500 -80.6833 360° North 81 93 7,000  Level Orlando TRACON
Sun 10:52:46 PM 28.2667 -80.7000 319° Northwest 81 93 7,000  Level Orlando TRACON
Sun 10:53:46 PM 28.2833 -80.7167 319° Northwest 80 92 7,000 -48 Level Orlando TRACON
Sun 10:54:52 PM 28.3167 -80.7167 360° North 82 94 6,900 -143 Descending Orlando TRACON
Sun 10:55:52 PM 28.3333 -80.7333 319° Northwest 94 108 6,700 -200 Descending Orlando TRACON
Sun 10:56:52 PM 28.3667 -80.7333 360° North 96 110 6,500 -211 Descending Orlando TRACON
Sun 10:57:46 PM 28.3833 -80.7500 319° Northwest 94 108 6,300 -250 Descending Orlando TRACON
Sun 10:58:52 PM 28.4167 -80.7500 360° North 89 102 6,000 -286 Descending Orlando TRACON
Sun 10:59:52 PM 28.4333 -80.7667 319° Northwest 87 100 5,700 -400 Descending Orlando TRACON
Sun 11:00:52 PM 28.4667 -80.7833 336° Northwest 97 112 5,200 -400 Descending Orlando TRACON
Sun 11:01:52 PM 28.4833 -80.7833 360° North 98 113 4,900 -150 Descending Orlando TRACON
Sun 11:02:52 PM 28.5167 -80.8000 336° Northwest 85 98 4,900 50 Level Orlando TRACON
Sun 11:03:52 PM 28.5333 -80.8000 360° North 84 97 5,000 52 Climbing Orlando TRACON
Sun 11:04:47 PM 28.5500 -80.8167 319° Northwest 83 96 5,000  Level Orlando TRACON
Sun 11:05:46 PM 28.5667 -80.8167 360° North 80 92 5,000  Level Orlando TRACON
Sun 11:06:41 PM 28.5833 -80.8333 319° Northwest 81 93 5,000  Level Orlando TRACON
Sun 11:07:40 PM 28.6167 -80.8333 360° North 81 93 5,000  Level Orlando TRACON
Sun 11:08:41 PM 28.6333 -80.8500 319° Northwest 80 92 5,000  Level Orlando TRACON
Sun 11:09:41 PM 28.6500 -80.8500 360° North 83 96 5,000  Level Orlando TRACON
Sun 11:10:59 PM 28.6833 -80.8667 336° Northwest 80 92 5,000  Level Orlando TRACON
Sun 11:11:59 PM 28.7000 -80.8667 360° North 83 96 5,000  Level Orlando TRACON
Sun 11:12:59 PM 28.7333 -80.8833 336° Northwest 81 93 5,000  Level Orlando TRACON
Sun 11:13:47 PM 28.7500 -80.8833 360° North 84 97 5,000  Level Orlando TRACON
Sun 11:16:17 PM 28.7942 -80.9144 328° Northwest 80 92 5,000  Level Jacksonville Center
Sun 11:17:18 PM 28.8150 -80.9186 350° North 79 91 5,000  Level Jacksonville Center
Sun 11:18:19 PM 28.8361 -80.9278 339° North 77 89 5,000  Level Jacksonville Center
Sun 11:19:19 PM 28.8572 -80.9369 339° North 77 89 5,000 -47 Level Jacksonville Center
Sun 11:20:26 PM 28.8781 -80.9436 344° North 79 91 4,900 -283 Descending Jacksonville Center
Sun 11:21:26 PM 28.9011 -80.9525 341° North 82 94 4,400 -645 Descending Jacksonville Center
Sun 11:22:27 PM 28.9264 -80.9639 338° Northwest 94 108 3,600 -738 Descending Jacksonville Center
Sun 11:23:28 PM 28.9517 -80.9731 342° North 95 109 2,900 -803 Descending Jacksonville Center
Sun 11:24:34 PM 28.9831 -80.9794 350° North 96 110 1,900 -909 Descending Jacksonville Center
Sun 11:26:00 PM 29.0122 -80.9711 41° Northeast  Level FlightAware
Sun 11:33:00 PM 29.0500 -80.9333 41° Northeast  Level FlightAware
Sun 11:34:00 PM 29.0557 -80.9489 41° Northeast  Level Estimated

Login

Don't have an account? Register now (free) for customized features, flight alerts, and more!